Latest Weather Observations for Marree Airport

IDS60801

Issued at 3:35 pm CDT Thursday 23 October 2014 (issued every 30 minutes, with the page automatically refreshed every 10 minutes)

About weather observations | Map of weather stations | Latest weather observations for SA | Other Formats
Station Details ID: 017126 Name: MARREE AERO Lat: -29.66 Lon: 138.07 Height: 50.0 m
Data from the previous 72 hours. | See also: Recent months for locations in South Australia
Date/Time
CDT
Temp
°C
App
Temp
°C
Dew
Point
Rel
Hum
%
Delta-T
°C
Wind Press
QNH
hPa
Press
MSL
hPa
Rain
since 9 am
mm
Dir
 
Spd
km/h
Gust
km/h
Spd
kts
Gust
kts
23/03:30pm 38.3 31.2 1.3 10 19.1 WNW 28 39 15 21 1012.3 - 0.0
23/03:00pm 38.2 31.5 1.3 10 19.0 W 26 35 14 19 1012.6 1012.4 0.0
23/02:30pm 38.2 31.7 2.6 11 18.7 WNW 26 35 14 19 1012.9 - 0.0
23/02:00pm 37.6 31.8 2.1 11 18.4 WNW 22 33 12 18 1013.3 - 0.0
23/01:30pm 36.6 30.9 2.6 12 17.7 NW 22 32 12 17 1013.7 - 0.0
23/01:00pm 35.8 31.1 3.1 13 17.1 NW 17 28 9 15 1014.1 - 0.0
23/12:30pm 35.6 30.7 4.0 14 16.7 N 19 24 10 13 1014.7 - 0.0
23/12:00pm 34.3 31.1 4.9 16 15.7 NW 11 19 6 10 1015.2 1015.1 0.0
23/11:30am 33.1 29.8 4.8 17 15.0 WNW 11 19 6 10 1015.5 - 0.0
23/11:00am 32.3 29.6 5.7 19 14.2 NNW 9 15 5 8 1015.8 - 0.0
23/10:30am 31.2 29.1 5.6 20 13.6 NW 6 15 3 8 1016.0 - 0.0
23/10:00am 29.5 28.0 6.8 24 12.2 NW 4 9 2 5 1016.0 - 0.0
23/09:30am 28.2 26.0 8.0 28 11.0 SSE 9 13 5 7 1016.0 - 0.0
23/09:00am 26.0 24.4 11.4 40 8.3 SE 11 15 6 8 1016.1 1016.0 0.0
23/08:30am 23.6 22.5 12.0 48 6.6 SSE 9 13 5 7 1016.1 - 0.0
23/08:00am 21.7 20.3 12.3 55 5.3 SSE 11 13 6 7 1015.8 - 0.0
23/07:30am 20.0 18.4 11.7 59 4.6 SE 11 13 6 7 1015.8 - 0.0
23/07:00am 19.3 17.6 11.3 60 4.4 SE 11 15 6 8 1015.3 - 0.0
23/06:30am 19.0 16.8 10.8 59 4.5 SE 13 15 7 8 1015.3 - 0.0
23/06:00am 20.1 17.8 11.6 58 4.7 ESE 15 19 8 10 1015.1 1015.0 0.0
23/05:30am 20.2 16.3 10.9 55 5.1 E 22 28 12 15 1014.8 - 0.0
23/05:00am 20.7 17.4 9.6 49 5.9 SSE 17 20 9 11 1014.3 - 0.0
23/04:30am 21.3 17.4 9.5 47 6.3 SSE 20 26 11 14 1014.1 - 0.0
23/04:00am 20.3 17.7 6.3 40 7.0 SE 9 11 5 6 1014.3 - 0.0
23/03:30am 20.9 17.8 5.7 37 7.6 SSE 11 13 6 7 1014.3 - 0.0
23/03:00am 22.2 19.5 5.6 34 8.3 SSE 9 11 5 6 1014.6 1014.5 0.0
23/02:30am 23.3 20.7 6.1 33 8.8 SSE 9 11 5 6 1014.8 - 0.0
23/02:00am 24.4 20.8 6.6 32 9.2 S 15 19 8 10 1014.9 - 0.0
23/01:30am 25.2 22.0 6.9 31 9.6 S 13 17 7 9 1015.5 - 0.0
23/01:00am 26.6 23.8 7.1 29 10.3 SSE 11 15 6 8 1015.6 - 0.0
23/12:30am 27.3 24.9 7.2 28 10.7 SW 9 19 5 10 1015.6 - 0.0
23/12:00am 28.1 24.8 6.2 25 11.5 S 13 19 7 10 1015.7 1015.6 0.0
 
Date/Time
CDT
Temp
°C
App
Temp
°C
Dew
Point
Rel
Hum
%
Delta-T
°C
Wind Press
QNH
hPa
Press
MSL
hPa
Rain
since 9 am
mm
Dir
 
Spd
km/h
Gust
km/h
Spd
kts
Gust
kts
22/11:30pm 27.5 22.9 1.8 19 12.5 S 15 17 8 9 1015.7 - 0.0
22/11:00pm 29.4 24.0 1.0 16 13.8 S 19 22 10 12 1015.7 - 0.0
22/10:30pm 29.1 24.4 0.7 16 13.7 S 15 17 8 9 1015.5 - 0.0
22/10:00pm 30.6 25.2 1.0 15 14.5 SSW 19 22 10 12 1015.4 - 0.0
22/09:30pm 32.5 26.8 0.6 13 15.7 SW 20 24 11 13 1015.2 - 0.0
22/09:00pm 31.6 26.8 -0.1 13 15.3 W 15 24 8 13 1014.7 1014.6 0.0
22/08:30pm 32.7 28.2 -0.4 12 16.0 NNW 13 15 7 8 1014.3 - 0.0
22/08:00pm 34.7 29.1 -0.1 11 17.2 N 19 22 10 12 1014.0 - 0.0
22/07:30pm 35.9 30.2 -0.5 10 18.0 N 19 22 10 12 1013.7 - 0.0
22/07:00pm 37.1 31.7 -1.0 9 18.8 N 17 20 9 11 1013.5 - 0.0
22/06:30pm 37.4 31.5 -0.8 9 18.9 NNW 20 24 11 13 1013.5 - 0.0
22/06:00pm 38.8 32.7 0.3 9 19.6 NNW 22 26 12 14 1013.5 1013.3 0.0
22/05:30pm 38.0 31.4 -0.3 9 19.2 NW 24 35 13 19 1013.7 - 0.0
22/05:00pm 38.7 31.4 0.2 9 19.5 W 28 41 15 22 1013.9 - 0.0
22/04:30pm 38.5 32.0 0.0 9 19.5 NW 24 37 13 20 1014.1 - 0.0
22/04:00pm 38.8 31.2 0.3 9 19.6 NNW 30 46 16 25 1014.3 - 0.0
22/03:53pm 39.0 31.8 0.4 9 19.7 NNW 28 46 15 25 1014.4 - 0.0
22/03:30pm 38.5 31.2 0.0 9 19.5 NNW 28 41 15 22 1014.6 - 0.0
22/03:16pm 39.2 32.0 0.6 9 19.8 NW 28 48 15 26 1014.8 - 0.0
22/03:00pm 38.7 30.7 0.2 9 19.5 NW 32 48 17 26 1015.2 1015.1 0.0
22/02:30pm 39.5 31.6 0.8 9 19.9 NW 32 44 17 24 1015.5 - 0.0
22/02:00pm 39.3 32.1 0.6 9 19.8 NW 28 46 15 25 1015.8 - 0.0
22/01:50pm 38.9 31.6 0.3 9 19.7 WNW 28 46 15 25 1016.0 - 0.0
22/01:30pm 38.1 30.0 1.2 10 19.0 NW 33 44 18 24 1016.3 - 0.0
22/01:00pm 37.6 29.7 0.8 10 18.7 NW 32 52 17 28 1016.7 - 0.0
22/12:58pm 37.7 29.8 0.9 10 18.8 NW 32 52 17 28 1016.7 - 0.0
22/12:30pm 38.1 30.0 1.2 10 19.0 NNW 33 43 18 23 1017.0 - 0.0
22/12:00pm 37.4 28.9 0.7 10 18.6 NW 35 43 19 23 1017.4 1017.3 0.0
22/11:30am 36.9 29.3 0.3 10 18.4 NW 30 43 16 23 1017.6 - 0.0
22/11:00am 35.4 28.6 0.5 11 17.4 NW 26 39 14 21 1018.0 - 0.0
22/10:30am 34.7 28.3 1.1 12 16.9 NNW 24 32 13 17 1018.1 - 0.0
22/10:00am 33.2 28.0 0.0 12 16.2 NNW 17 20 9 11 1018.3 - 0.0
22/09:30am 31.9 27.8 0.1 13 15.4 WNW 11 15 6 8 1018.1 - 0.0
22/09:00am 30.2 27.4 -0.2 14 14.5 WSW 4 11 2 6 1018.1 1018.0 0.0
22/08:30am 27.6 25.3 0.4 17 12.9 SSW 2 6 1 3 1017.8 - 0.0
22/08:00am 24.5 20.2 0.8 21 11.0 SW 13 22 7 12 1017.7 - 0.0
22/07:30am 22.7 18.3 0.5 23 10.1 S 13 15 7 8 1016.9 - 0.0
22/07:00am 20.2 15.7 -0.4 25 9.1 SSE 13 15 7 8 1016.5 - 0.0
22/06:30am 19.8 15.2 -0.8 25 9.0 SSE 13 17 7 9 1016.1 - 0.0
22/06:00am 20.0 15.1 -0.6 25 9.0 SSE 15 15 8 8 1015.8 1015.7 0.0
22/05:30am 19.6 14.9 -1.5 24 9.0 SE 13 15 7 8 1015.4 - 0.0
22/05:00am 20.2 16.4 -1.0 24 9.2 SE 9 11 5 6 1015.3 - 0.0
22/04:30am 20.7 17.9 -0.6 24 9.4 WSW 4 6 2 3 1015.0 - 0.0
22/04:00am 22.9 19.6 0.1 22 10.4 N 7 9 4 5 1014.9 - 0.0
22/03:30am 24.1 20.9 -0.2 20 11.1 NNE 6 7 3 4 1015.0 - 0.0
22/03:00am 23.6 19.8 -0.6 20 10.9 SSW 9 11 5 6 1015.5 1015.4 0.0
22/02:30am 23.4 20.1 -0.1 21 10.7 S 7 13 4 7 1015.7 - 0.0
22/02:00am 24.7 21.4 0.3 20 11.3 NE 7 11 4 6 1015.6 - 0.0
22/01:30am 24.3 19.8 -0.1 20 11.2 N 13 15 7 8 1016.2 - 0.0
22/01:00am 26.3 21.5 0.1 18 12.2 NNE 15 20 8 11 1016.4 - 0.0
22/12:30am 25.8 21.2 -1.1 17 12.2 NNE 13 17 7 9 1016.9 - 0.0
22/12:00am 25.5 21.6 -1.3 17 12.1 NE 9 9 5 5 1017.2 1017.1 0.0
 
Date/Time
CDT
Temp
°C
App
Temp
°C
Dew
Point
Rel
Hum
%
Delta-T
°C
Wind Press
QNH
hPa
Press
MSL
hPa
Rain
since 9 am
mm
Dir
 
Spd
km/h
Gust
km/h
Spd
kts
Gust
kts
21/11:30pm 26.0 21.7 -1.7 16 12.5 ENE 11 11 6 6 1017.5 - 0.0
21/11:00pm 25.4 20.8 -1.4 17 12.1 E 13 17 7 9 1017.7 - 0.0
21/10:30pm 26.7 22.5 -1.2 16 12.7 WSW 11 13 6 7 1017.6 - 0.0
21/10:00pm 27.3 23.1 -0.7 16 13.0 W 11 11 6 6 1017.5 - 0.0
21/09:30pm 29.0 24.4 -1.2 14 14.0 W 13 15 7 8 1017.1 - 0.0
21/09:00pm 30.1 25.8 -1.3 13 14.7 NW 11 13 6 7 1017.0 1016.9 0.0
21/08:30pm 31.8 28.5 -1.1 12 15.6 NNW 6 7 3 4 1016.7 - 0.0
21/08:00pm 32.3 28.1 -0.7 12 15.9 N 11 13 6 7 1016.4 - 0.0
21/07:30pm 34.3 30.0 -1.7 10 17.2 N 11 13 6 7 1016.1 - 0.0
21/07:00pm 36.5 31.1 -1.4 9 18.5 N 17 26 9 14 1015.8 - 0.0
21/06:30pm 37.5 32.6 -0.7 9 19.0 NNW 15 20 8 11 1015.7 - 0.0
21/06:00pm 37.7 31.8 -2.2 8 19.4 NNW 19 24 10 13 1015.6 1015.5 0.0
21/05:30pm 38.1 32.1 -1.9 8 19.6 NW 20 28 11 15 1015.5 - 0.0
21/05:00pm 38.2 31.4 -1.8 8 19.6 NNW 24 33 13 18 1015.6 - 0.0
21/04:30pm 38.7 32.7 -1.4 8 19.9 N 20 33 11 18 1015.7 - 0.0
21/04:00pm 38.1 33.4 -1.9 8 19.6 N 13 20 7 11 1015.9 - 0.0
21/03:30pm 39.3 32.8 -2.8 7 20.5 N 22 37 12 20 1016.1 - 0.0
21/03:00pm 37.9 33.6 -2.0 8 19.5 E 11 33 6 18 1016.5 1016.4 0.0
21/02:30pm 38.3 32.9 -1.7 8 19.7 N 17 33 9 18 1017.0 - 0.0
21/02:00pm 37.0 30.7 -1.1 9 18.8 N 22 32 12 17 1017.7 - 0.0
21/01:30pm 37.1 30.0 -1.0 9 18.8 NNW 26 37 14 20 1018.1 - 0.0
21/01:00pm 36.5 29.4 -1.4 9 18.5 N 26 35 14 19 1018.5 - 0.0
21/12:30pm 36.6 29.1 -1.4 9 18.6 N 28 41 15 22 1018.8 - 0.0
21/12:00pm 36.0 28.6 -0.4 10 18.0 N 28 43 15 23 1019.2 1019.1 0.0
21/11:30am 36.5 29.2 0.0 10 18.2 N 28 39 15 21 1019.4 - 0.0
21/11:00am 35.7 28.7 -0.6 10 17.9 N 26 35 14 19 1019.5 - 0.0
21/10:30am 35.4 29.5 -2.3 9 18.0 NNE 19 30 10 16 1019.5 - 0.0
21/10:00am 33.2 27.3 -2.5 10 16.7 NNE 19 24 10 13 1019.5 - 0.0
21/09:30am 30.9 26.4 -3.0 11 15.5 ENE 11 13 6 7 1019.5 - 0.0
21/09:00am 27.7 23.2 -3.2 13 13.7 ESE 11 13 6 7 1019.3 1019.2 0.0
21/08:30am 25.0 20.2 -2.5 16 12.1 SE 13 15 7 8 1019.2 - 0.0
21/08:00am 22.2 17.3 -3.2 18 10.8 SSE 13 15 7 8 1019.1 - 0.0
21/07:30am 19.4 14.5 -3.5 21 9.4 SE 13 15 7 8 1018.8 - 0.0
21/07:00am 18.6 13.7 -3.5 22 9.0 S 13 15 7 8 1018.6 - 0.0
21/06:30am 17.4 11.7 -3.9 23 8.5 SSE 17 17 9 9 1018.2 - 0.0
21/06:00am 17.2 11.5 -4.1 23 8.4 SSE 17 17 9 9 1017.9 1017.8 0.0
21/05:30am 17.4 11.6 -4.5 22 8.6 SSE 17 19 9 10 1017.7 - 0.0
21/05:00am 18.4 13.0 -4.3 21 9.1 SE 15 17 8 9 1017.7 - 0.0
21/04:30am 19.2 14.2 -4.3 20 9.5 SE 13 15 7 8 1017.7 - 0.0
21/04:00am 21.9 17.7 -3.5 18 10.7 ESE 9 9 5 5 1017.7 - 0.0
21/03:30am 20.7 17.8 -4.4 18 10.2 NE 2 7 1 4 1017.7 - 0.0
21/03:00am 22.5 19.3 -3.7 17 11.0 NNE 4 7 2 4 1017.7 1017.6 0.0
21/02:30am 20.4 17.8 -4.7 18 10.1 CALM 0 2 0 1 1017.9 - 0.0
21/02:00am 23.0 19.2 -4.1 16 11.4 NE 7 9 4 5 1018.1 - 0.0
21/01:30am 24.1 19.5 -4.1 15 11.9 NE 11 13 6 7 1018.3 - 0.0
21/01:00am 25.2 20.6 -4.2 14 12.6 NNE 11 11 6 6 1018.7 - 0.0
21/12:30am 26.2 21.6 -4.4 13 13.1 NNE 11 13 6 7 1018.9 - 0.0
21/12:00am 26.9 22.3 -3.8 13 13.4 N 11 13 6 7 1019.0 1018.9 0.0
 
Date/Time
CDT
Temp
°C
App
Temp
°C
Dew
Point
Rel
Hum
%
Delta-T
°C
Wind Press
QNH
hPa
Press
MSL
hPa
Rain
since 9 am
mm
Dir
 
Spd
km/h
Gust
km/h
Spd
kts
Gust
kts
20/11:30pm 28.6 23.2 -4.7 11 14.5 NE 15 19 8 10 1019.0 - 0.0
20/11:00pm 29.7 23.4 -3.9 11 15.0 ENE 20 28 11 15 1018.9 - 0.0
20/10:30pm 25.7 21.3 -2.8 15 12.5 E 11 17 6 9 1018.9 - 0.0
20/10:00pm 26.9 22.8 -2.8 14 13.2 N 9 13 5 7 1018.7 - 0.0
20/09:30pm 28.9 24.0 -3.3 12 14.4 NE 13 15 7 8 1018.4 - 0.0
20/09:00pm 29.6 25.2 -2.8 12 14.7 NNE 11 13 6 7 1018.2 1018.1 0.0
20/08:30pm 31.3 26.9 -2.6 11 15.7 N 11 13 6 7 1017.9 - 0.0
20/08:00pm 32.5 27.3 -3.0 10 16.4 N 15 15 8 8 1017.6 - 0.0
20/07:30pm 34.3 29.4 -3.1 9 17.5 N 13 17 7 9 1017.1 - 0.0
20/07:00pm 36.0 31.5 -3.4 8 18.6 N 11 17 6 9 1016.6 - 0.0
20/06:30pm 36.5 30.5 -3.0 8 18.8 N 19 24 10 13 1016.5 - 0.0
20/06:00pm 37.0 31.0 -2.7 8 19.0 NNE 19 26 10 14 1016.4 1016.3 0.0
20/05:30pm 37.8 31.0 -2.1 8 19.4 NNE 24 33 13 18 1016.3 - 0.0
20/05:00pm 37.6 32.3 -4.0 7 19.6 NE 15 24 8 13 1016.4 - 0.0
20/04:30pm 37.1 32.3 -2.6 8 19.1 N 13 20 7 11 1016.5 - 0.0
20/04:00pm 37.6 31.1 -2.2 8 19.3 NE 22 35 12 19 1016.8 - 0.0

Other Formats:

Comma delimited format used in spreadsheet applications
http://www.bom.gov.au/fwo/IDS60801/IDS60801.95480.axf

JavaScript Object Notation format (JSON) in row-major order
http://www.bom.gov.au/fwo/IDS60801/IDS60801.95480.json